sensor_id;sensor_type;location;lat;lon;timestamp;P1;durP1;ratioP1;P2;durP2;ratioP2
48911;SDS011;34722;52.108;5.044;2023-05-07T00:01:44;63.63;;;41.30;;
48911;SDS011;34722;52.108;5.044;2023-05-07T00:04:10;69.72;;;42.00;;
48911;SDS011;34722;52.108;5.044;2023-05-07T00:06:39;61.47;;;40.28;;
48911;SDS011;34722;52.108;5.044;2023-05-07T00:09:05;65.70;;;39.63;;
48911;SDS011;34722;52.108;5.044;2023-05-07T00:11:32;64.85;;;41.22;;
48911;SDS011;34722;52.108;5.044;2023-05-07T00:13:58;68.35;;;42.22;;
48911;SDS011;34722;52.108;5.044;2023-05-07T00:16:25;68.57;;;41.72;;
48911;SDS011;34722;52.108;5.044;2023-05-07T00:18:51;66.50;;;41.17;;
48911;SDS011;34722;52.108;5.044;2023-05-07T00:21:18;66.68;;;39.83;;
48911;SDS011;34722;52.108;5.044;2023-05-07T00:23:46;65.85;;;41.63;;
48911;SDS011;34722;52.108;5.044;2023-05-07T00:26:12;62.65;;;39.28;;
48911;SDS011;34722;52.108;5.044;2023-05-07T00:28:38;63.33;;;39.95;;
48911;SDS011;34722;52.108;5.044;2023-05-07T00:31:04;51.55;;;35.00;;
48911;SDS011;34722;52.108;5.044;2023-05-07T00:33:34;47.95;;;33.53;;
48911;SDS011;34722;52.108;5.044;2023-05-07T00:36:20;45.58;;;31.88;;
48911;SDS011;34722;52.108;5.044;2023-05-07T00:38:47;45.22;;;32.70;;
48911;SDS011;34722;52.108;5.044;2023-05-07T00:41:14;38.50;;;30.85;;
48911;SDS011;34722;52.108;5.044;2023-05-07T00:43:49;43.75;;;29.50;;
48911;SDS011;34722;52.108;5.044;2023-05-07T00:46:20;39.28;;;29.40;;
48911;SDS011;34722;52.108;5.044;2023-05-07T00:48:47;37.67;;;29.15;;
48911;SDS011;34722;52.108;5.044;2023-05-07T00:51:14;39.30;;;27.42;;
48911;SDS011;34722;52.108;5.044;2023-05-07T00:53:43;38.72;;;28.75;;
48911;SDS011;34722;52.108;5.044;2023-05-07T00:56:10;42.83;;;30.73;;
48911;SDS011;34722;52.108;5.044;2023-05-07T00:58:49;35.65;;;27.75;;
48911;SDS011;34722;52.108;5.044;2023-05-07T01:01:15;35.20;;;28.42;;
48911;SDS011;34722;52.108;5.044;2023-05-07T01:03:42;36.53;;;28.40;;
48911;SDS011;34722;52.108;5.044;2023-05-07T01:06:08;37.53;;;28.42;;
48911;SDS011;34722;52.108;5.044;2023-05-07T01:08:37;37.78;;;27.90;;
48911;SDS011;34722;52.108;5.044;2023-05-07T01:11:10;40.03;;;29.63;;
48911;SDS011;34722;52.108;5.044;2023-05-07T01:13:39;42.45;;;29.13;;
48911;SDS011;34722;52.108;5.044;2023-05-07T01:16:17;43.55;;;30.60;;
48911;SDS011;34722;52.108;5.044;2023-05-07T01:18:43;43.22;;;28.85;;
48911;SDS011;34722;52.108;5.044;2023-05-07T01:21:10;42.92;;;30.92;;
48911;SDS011;34722;52.108;5.044;2023-05-07T01:23:37;45.70;;;31.25;;
48911;SDS011;34722;52.108;5.044;2023-05-07T01:26:08;47.38;;;31.88;;
48911;SDS011;34722;52.108;5.044;2023-05-07T01:28:34;44.40;;;31.65;;
48911;SDS011;34722;52.108;5.044;2023-05-07T01:31:02;52.60;;;32.03;;
48911;SDS011;34722;52.108;5.044;2023-05-07T01:33:29;46.90;;;30.70;;
48911;SDS011;34722;52.108;5.044;2023-05-07T01:35:58;48.00;;;31.48;;
48911;SDS011;34722;52.108;5.044;2023-05-07T01:38:31;45.20;;;28.90;;
48911;SDS011;34722;52.108;5.044;2023-05-07T01:40:57;42.08;;;30.15;;
48911;SDS011;34722;52.108;5.044;2023-05-07T01:43:23;45.25;;;29.65;;
48911;SDS011;34722;52.108;5.044;2023-05-07T01:45:49;43.95;;;29.67;;
48911;SDS011;34722;52.108;5.044;2023-05-07T01:48:15;39.33;;;28.25;;
48911;SDS011;34722;52.108;5.044;2023-05-07T01:50:41;40.65;;;27.02;;
48911;SDS011;34722;52.108;5.044;2023-05-07T01:53:08;35.38;;;25.80;;
48911;SDS011;34722;52.108;5.044;2023-05-07T01:55:34;35.88;;;23.27;;
48911;SDS011;34722;52.108;5.044;2023-05-07T01:58:01;35.03;;;22.85;;
48911;SDS011;34722;52.108;5.044;2023-05-07T02:00:28;33.50;;;22.67;;
48911;SDS011;34722;52.108;5.044;2023-05-07T02:02:54;32.10;;;22.25;;
48911;SDS011;34722;52.108;5.044;2023-05-07T02:05:20;34.00;;;22.27;;
48911;SDS011;34722;52.108;5.044;2023-05-07T02:07:46;32.60;;;23.00;;
48911;SDS011;34722;52.108;5.044;2023-05-07T02:10:12;33.33;;;23.35;;
48911;SDS011;34722;52.108;5.044;2023-05-07T02:12:38;29.20;;;21.92;;
48911;SDS011;34722;52.108;5.044;2023-05-07T02:15:05;31.20;;;22.80;;
48911;SDS011;34722;52.108;5.044;2023-05-07T02:17:31;32.38;;;22.13;;
48911;SDS011;34722;52.108;5.044;2023-05-07T02:19:58;28.88;;;22.25;;
48911;SDS011;34722;52.108;5.044;2023-05-07T02:22:24;37.53;;;21.30;;
48911;SDS011;34722;52.108;5.044;2023-05-07T02:24:50;27.27;;;20.23;;
48911;SDS011;34722;52.108;5.044;2023-05-07T02:27:25;30.98;;;20.92;;
48911;SDS011;34722;52.108;5.044;2023-05-07T02:29:52;30.05;;;20.10;;
48911;SDS011;34722;52.108;5.044;2023-05-07T02:32:19;29.15;;;22.50;;
48911;SDS011;34722;52.108;5.044;2023-05-07T02:37:26;38.78;;;22.45;;
48911;SDS011;34722;52.108;5.044;2023-05-07T02:39:52;30.85;;;23.25;;
48911;SDS011;34722;52.108;5.044;2023-05-07T02:42:18;31.75;;;23.38;;
48911;SDS011;34722;52.108;5.044;2023-05-07T02:44:43;32.33;;;23.10;;
48911;SDS011;34722;52.108;5.044;2023-05-07T02:47:09;33.05;;;24.33;;
48911;SDS011;34722;52.108;5.044;2023-05-07T02:49:35;32.72;;;24.13;;
48911;SDS011;34722;52.108;5.044;2023-05-07T02:52:01;35.38;;;24.75;;
48911;SDS011;34722;52.108;5.044;2023-05-07T02:54:26;31.13;;;23.75;;
48911;SDS011;34722;52.108;5.044;2023-05-07T02:56:52;33.13;;;26.23;;
48911;SDS011;34722;52.108;5.044;2023-05-07T02:59:18;35.15;;;25.45;;
48911;SDS011;34722;52.108;5.044;2023-05-07T03:01:43;40.08;;;25.52;;
48911;SDS011;34722;52.108;5.044;2023-05-07T03:04:10;46.72;;;26.23;;
48911;SDS011;34722;52.108;5.044;2023-05-07T03:06:36;31.67;;;25.17;;
48911;SDS011;34722;52.108;5.044;2023-05-07T03:09:02;34.17;;;25.65;;
48911;SDS011;34722;52.108;5.044;2023-05-07T03:11:28;34.63;;;24.88;;
48911;SDS011;34722;52.108;5.044;2023-05-07T03:13:53;38.55;;;26.77;;
48911;SDS011;34722;52.108;5.044;2023-05-07T03:16:19;39.97;;;26.25;;
48911;SDS011;34722;52.108;5.044;2023-05-07T03:18:45;36.65;;;25.63;;
48911;SDS011;34722;52.108;5.044;2023-05-07T03:21:11;41.53;;;27.08;;
48911;SDS011;34722;52.108;5.044;2023-05-07T03:23:36;40.60;;;26.40;;
48911;SDS011;34722;52.108;5.044;2023-05-07T03:26:02;41.90;;;27.55;;
48911;SDS011;34722;52.108;5.044;2023-05-07T03:28:28;46.92;;;31.10;;
48911;SDS011;34722;52.108;5.044;2023-05-07T03:30:53;45.90;;;27.42;;
48911;SDS011;34722;52.108;5.044;2023-05-07T03:33:19;42.72;;;27.35;;
48911;SDS011;34722;52.108;5.044;2023-05-07T03:35:45;50.40;;;27.50;;
48911;SDS011;34722;52.108;5.044;2023-05-07T03:38:10;42.88;;;28.80;;
48911;SDS011;34722;52.108;5.044;2023-05-07T03:40:36;37.35;;;27.55;;
48911;SDS011;34722;52.108;5.044;2023-05-07T03:43:02;38.97;;;27.02;;
48911;SDS011;34722;52.108;5.044;2023-05-07T03:45:27;47.17;;;29.52;;
48911;SDS011;34722;52.108;5.044;2023-05-07T03:47:53;40.55;;;28.85;;
48911;SDS011;34722;52.108;5.044;2023-05-07T03:50:19;40.47;;;28.98;;
48911;SDS011;34722;52.108;5.044;2023-05-07T03:52:45;42.70;;;29.05;;
48911;SDS011;34722;52.108;5.044;2023-05-07T03:55:11;45.67;;;30.23;;
48911;SDS011;34722;52.108;5.044;2023-05-07T03:57:36;44.35;;;30.60;;
48911;SDS011;34722;52.108;5.044;2023-05-07T04:00:02;46.67;;;28.75;;
48911;SDS011;34722;52.108;5.044;2023-05-07T04:02:29;44.00;;;30.25;;
48911;SDS011;34722;52.108;5.044;2023-05-07T04:04:55;48.90;;;30.38;;
48911;SDS011;34722;52.108;5.044;2023-05-07T04:07:21;48.33;;;31.98;;
48911;SDS011;34722;52.108;5.044;2023-05-07T04:09:47;47.28;;;30.63;;
48911;SDS011;34722;52.108;5.044;2023-05-07T04:12:12;43.28;;;29.58;;
48911;SDS011;34722;52.108;5.044;2023-05-07T04:14:38;45.70;;;29.65;;
48911;SDS011;34722;52.108;5.044;2023-05-07T04:17:04;49.67;;;32.78;;
48911;SDS011;34722;52.108;5.044;2023-05-07T04:19:32;43.67;;;30.70;;
48911;SDS011;34722;52.108;5.044;2023-05-07T04:21:58;49.92;;;31.85;;
48911;SDS011;34722;52.108;5.044;2023-05-07T04:24:24;45.60;;;30.70;;
48911;SDS011;34722;52.108;5.044;2023-05-07T04:26:50;43.75;;;31.50;;
48911;SDS011;34722;52.108;5.044;2023-05-07T04:29:16;51.40;;;33.00;;
48911;SDS011;34722;52.108;5.044;2023-05-07T04:31:42;43.28;;;30.55;;
48911;SDS011;34722;52.108;5.044;2023-05-07T04:34:09;44.95;;;32.60;;
48911;SDS011;34722;52.108;5.044;2023-05-07T04:36:36;51.88;;;32.03;;
48911;SDS011;34722;52.108;5.044;2023-05-07T04:39:05;45.92;;;32.55;;
48911;SDS011;34722;52.108;5.044;2023-05-07T04:41:31;46.53;;;31.35;;
48911;SDS011;34722;52.108;5.044;2023-05-07T04:43:57;45.22;;;33.80;;
48911;SDS011;34722;52.108;5.044;2023-05-07T04:46:24;57.45;;;34.00;;
48911;SDS011;34722;52.108;5.044;2023-05-07T04:48:49;52.10;;;33.45;;
48911;SDS011;34722;52.108;5.044;2023-05-07T04:51:15;53.35;;;34.58;;
48911;SDS011;34722;52.108;5.044;2023-05-07T04:53:44;55.78;;;36.45;;
48911;SDS011;34722;52.108;5.044;2023-05-07T04:56:10;49.03;;;33.53;;
48911;SDS011;34722;52.108;5.044;2023-05-07T04:58:35;51.35;;;33.70;;
48911;SDS011;34722;52.108;5.044;2023-05-07T05:01:01;50.08;;;35.85;;
48911;SDS011;34722;52.108;5.044;2023-05-07T05:03:27;45.25;;;32.53;;
48911;SDS011;34722;52.108;5.044;2023-05-07T05:05:53;44.15;;;31.67;;
48911;SDS011;34722;52.108;5.044;2023-05-07T05:08:19;43.20;;;31.25;;
48911;SDS011;34722;52.108;5.044;2023-05-07T05:10:44;45.55;;;32.28;;
48911;SDS011;34722;52.108;5.044;2023-05-07T05:13:10;42.72;;;31.67;;
48911;SDS011;34722;52.108;5.044;2023-05-07T05:15:38;51.78;;;32.95;;
48911;SDS011;34722;52.108;5.044;2023-05-07T05:18:04;44.45;;;33.20;;
48911;SDS011;34722;52.108;5.044;2023-05-07T05:20:30;44.67;;;30.65;;
48911;SDS011;34722;52.108;5.044;2023-05-07T05:22:55;43.42;;;31.77;;
48911;SDS011;34722;52.108;5.044;2023-05-07T05:25:21;42.15;;;31.25;;
48911;SDS011;34722;52.108;5.044;2023-05-07T05:27:47;39.75;;;30.52;;
48911;SDS011;34722;52.108;5.044;2023-05-07T05:30:12;39.70;;;30.40;;
48911;SDS011;34722;52.108;5.044;2023-05-07T05:32:38;39.58;;;29.42;;
48911;SDS011;34722;52.108;5.044;2023-05-07T05:35:10;39.03;;;30.30;;
48911;SDS011;34722;52.108;5.044;2023-05-07T05:37:35;41.97;;;29.13;;
48911;SDS011;34722;52.108;5.044;2023-05-07T05:40:01;37.15;;;27.30;;
48911;SDS011;34722;52.108;5.044;2023-05-07T05:42:27;39.53;;;31.55;;
48911;SDS011;34722;52.108;5.044;2023-05-07T05:44:53;41.75;;;30.83;;
48911;SDS011;34722;52.108;5.044;2023-05-07T05:47:18;44.28;;;32.30;;
48911;SDS011;34722;52.108;5.044;2023-05-07T05:49:44;47.78;;;32.47;;
48911;SDS011;34722;52.108;5.044;2023-05-07T05:52:11;49.88;;;33.53;;
48911;SDS011;34722;52.108;5.044;2023-05-07T05:54:38;46.38;;;33.58;;
48911;SDS011;34722;52.108;5.044;2023-05-07T05:57:04;48.75;;;34.72;;
48911;SDS011;34722;52.108;5.044;2023-05-07T05:59:30;43.08;;;32.03;;
48911;SDS011;34722;52.108;5.044;2023-05-07T06:01:56;44.30;;;32.92;;
48911;SDS011;34722;52.108;5.044;2023-05-07T06:04:22;40.95;;;32.60;;
48911;SDS011;34722;52.108;5.044;2023-05-07T06:06:48;45.72;;;32.20;;
48911;SDS011;34722;52.108;5.044;2023-05-07T06:09:13;46.92;;;32.92;;
48911;SDS011;34722;52.108;5.044;2023-05-07T06:11:39;41.45;;;32.03;;
48911;SDS011;34722;52.108;5.044;2023-05-07T06:14:06;43.22;;;32.08;;
48911;SDS011;34722;52.108;5.044;2023-05-07T06:16:31;39.53;;;31.45;;
48911;SDS011;34722;52.108;5.044;2023-05-07T06:18:57;43.30;;;31.38;;
48911;SDS011;34722;52.108;5.044;2023-05-07T06:21:23;41.42;;;31.02;;
48911;SDS011;34722;52.108;5.044;2023-05-07T06:23:48;38.17;;;29.17;;
48911;SDS011;34722;52.108;5.044;2023-05-07T06:26:14;39.25;;;30.48;;
48911;SDS011;34722;52.108;5.044;2023-05-07T06:28:40;42.63;;;30.52;;
48911;SDS011;34722;52.108;5.044;2023-05-07T06:31:15;40.20;;;28.80;;
48911;SDS011;34722;52.108;5.044;2023-05-07T06:33:45;41.10;;;31.05;;
48911;SDS011;34722;52.108;5.044;2023-05-07T06:36:11;41.42;;;31.08;;
48911;SDS011;34722;52.108;5.044;2023-05-07T06:38:37;42.15;;;31.67;;
48911;SDS011;34722;52.108;5.044;2023-05-07T06:41:03;42.35;;;31.55;;
48911;SDS011;34722;52.108;5.044;2023-05-07T06:43:30;39.83;;;30.35;;
48911;SDS011;34722;52.108;5.044;2023-05-07T06:45:56;43.55;;;30.33;;
48911;SDS011;34722;52.108;5.044;2023-05-07T06:51:43;40.80;;;30.48;;
48911;SDS011;34722;52.108;5.044;2023-05-07T06:54:09;44.55;;;33.42;;
48911;SDS011;34722;52.108;5.044;2023-05-07T06:56:35;50.38;;;33.83;;
48911;SDS011;34722;52.108;5.044;2023-05-07T06:59:01;48.55;;;34.20;;
48911;SDS011;34722;52.108;5.044;2023-05-07T07:01:28;48.08;;;34.13;;
48911;SDS011;34722;52.108;5.044;2023-05-07T07:03:53;50.58;;;36.47;;
48911;SDS011;34722;52.108;5.044;2023-05-07T07:06:19;54.65;;;34.90;;
48911;SDS011;34722;52.108;5.044;2023-05-07T07:08:45;64.95;;;38.35;;
48911;SDS011;34722;52.108;5.044;2023-05-07T07:11:11;55.65;;;38.20;;
48911;SDS011;34722;52.108;5.044;2023-05-07T07:13:36;54.30;;;35.83;;
48911;SDS011;34722;52.108;5.044;2023-05-07T07:16:02;51.42;;;34.75;;
48911;SDS011;34722;52.108;5.044;2023-05-07T07:18:28;45.40;;;34.05;;
48911;SDS011;34722;52.108;5.044;2023-05-07T07:20:54;42.00;;;31.65;;
48911;SDS011;34722;52.108;5.044;2023-05-07T07:23:20;46.08;;;31.95;;
48911;SDS011;34722;52.108;5.044;2023-05-07T07:25:46;44.60;;;31.77;;
48911;SDS011;34722;52.108;5.044;2023-05-07T07:28:11;40.60;;;31.23;;
48911;SDS011;34722;52.108;5.044;2023-05-07T07:30:37;44.33;;;30.95;;
48911;SDS011;34722;52.108;5.044;2023-05-07T07:33:03;39.67;;;30.40;;
48911;SDS011;34722;52.108;5.044;2023-05-07T07:35:30;37.70;;;29.42;;
48911;SDS011;34722;52.108;5.044;2023-05-07T07:37:58;38.35;;;28.83;;
48911;SDS011;34722;52.108;5.044;2023-05-07T07:40:24;38.95;;;30.05;;
48911;SDS011;34722;52.108;5.044;2023-05-07T07:42:50;36.15;;;28.42;;
48911;SDS011;34722;52.108;5.044;2023-05-07T07:45:19;36.65;;;26.60;;
48911;SDS011;34722;52.108;5.044;2023-05-07T07:47:45;35.85;;;26.50;;
48911;SDS011;34722;52.108;5.044;2023-05-07T07:50:11;36.72;;;27.85;;
48911;SDS011;34722;52.108;5.044;2023-05-07T07:52:37;40.42;;;29.23;;
48911;SDS011;34722;52.108;5.044;2023-05-07T07:55:03;41.40;;;28.48;;
48911;SDS011;34722;52.108;5.044;2023-05-07T07:57:29;39.80;;;28.40;;
48911;SDS011;34722;52.108;5.044;2023-05-07T07:59:55;38.05;;;28.33;;
48911;SDS011;34722;52.108;5.044;2023-05-07T08:02:21;38.58;;;27.23;;
48911;SDS011;34722;52.108;5.044;2023-05-07T08:04:47;33.65;;;26.30;;
48911;SDS011;34722;52.108;5.044;2023-05-07T08:07:13;39.83;;;27.95;;
48911;SDS011;34722;52.108;5.044;2023-05-07T08:09:38;34.75;;;26.38;;
48911;SDS011;34722;52.108;5.044;2023-05-07T08:12:05;33.85;;;25.05;;
48911;SDS011;34722;52.108;5.044;2023-05-07T08:14:32;28.35;;;23.13;;
48911;SDS011;34722;52.108;5.044;2023-05-07T08:16:58;25.42;;;20.77;;
48911;SDS011;34722;52.108;5.044;2023-05-07T08:19:24;24.02;;;20.75;;
48911;SDS011;34722;52.108;5.044;2023-05-07T08:21:49;25.83;;;20.13;;
48911;SDS011;34722;52.108;5.044;2023-05-07T08:24:15;24.08;;;19.83;;
48911;SDS011;34722;52.108;5.044;2023-05-07T08:26:41;27.58;;;21.00;;
48911;SDS011;34722;52.108;5.044;2023-05-07T08:29:08;25.42;;;19.65;;
48911;SDS011;34722;52.108;5.044;2023-05-07T08:31:33;22.23;;;19.60;;
48911;SDS011;34722;52.108;5.044;2023-05-07T08:33:59;22.58;;;18.23;;
48911;SDS011;34722;52.108;5.044;2023-05-07T08:39:25;19.50;;;16.83;;
48911;SDS011;34722;52.108;5.044;2023-05-07T08:41:51;18.60;;;16.45;;
48911;SDS011;34722;52.108;5.044;2023-05-07T08:44:19;19.25;;;15.88;;
48911;SDS011;34722;52.108;5.044;2023-05-07T08:46:47;18.27;;;16.35;;
48911;SDS011;34722;52.108;5.044;2023-05-07T08:49:18;16.42;;;14.48;;
48911;SDS011;34722;52.108;5.044;2023-05-07T08:51:45;18.27;;;15.07;;
48911;SDS011;34722;52.108;5.044;2023-05-07T08:54:11;15.68;;;14.15;;
48911;SDS011;34722;52.108;5.044;2023-05-07T08:56:40;15.48;;;13.57;;
48911;SDS011;34722;52.108;5.044;2023-05-07T08:59:06;17.50;;;13.55;;
48911;SDS011;34722;52.108;5.044;2023-05-07T09:01:32;14.13;;;12.15;;
48911;SDS011;34722;52.108;5.044;2023-05-07T09:09:08;13.43;;;12.05;;
48911;SDS011;34722;52.108;5.044;2023-05-07T09:11:34;13.07;;;11.68;;
48911;SDS011;34722;52.108;5.044;2023-05-07T09:13:59;13.57;;;12.38;;
48911;SDS011;34722;52.108;5.044;2023-05-07T09:16:28;13.77;;;12.13;;
48911;SDS011;34722;52.108;5.044;2023-05-07T09:18:57;13.90;;;12.45;;
48911;SDS011;34722;52.108;5.044;2023-05-07T09:21:23;15.88;;;13.20;;
48911;SDS011;34722;52.108;5.044;2023-05-07T09:23:53;15.30;;;13.77;;
48911;SDS011;34722;52.108;5.044;2023-05-07T09:26:24;13.70;;;11.90;;
48911;SDS011;34722;52.108;5.044;2023-05-07T09:28:50;17.60;;;13.45;;
48911;SDS011;34722;52.108;5.044;2023-05-07T09:31:16;14.55;;;13.05;;
48911;SDS011;34722;52.108;5.044;2023-05-07T09:33:42;15.75;;;14.15;;
48911;SDS011;34722;52.108;5.044;2023-05-07T09:36:09;16.23;;;12.77;;
48911;SDS011;34722;52.108;5.044;2023-05-07T09:38:35;15.00;;;11.30;;
48911;SDS011;34722;52.108;5.044;2023-05-07T09:41:06;12.95;;;11.65;;
48911;SDS011;34722;52.108;5.044;2023-05-07T09:43:33;14.68;;;13.18;;
48911;SDS011;34722;52.108;5.044;2023-05-07T09:46:13;13.38;;;11.65;;
48911;SDS011;34722;52.108;5.044;2023-05-07T09:48:42;12.25;;;11.00;;
48911;SDS011;34722;52.108;5.044;2023-05-07T09:51:33;13.20;;;11.80;;
48911;SDS011;34722;52.108;5.044;2023-05-07T09:53:59;12.90;;;11.13;;
48911;SDS011;34722;52.108;5.044;2023-05-07T09:56:29;11.32;;;10.18;;
48911;SDS011;34722;52.108;5.044;2023-05-07T09:58:56;13.32;;;12.10;;
48911;SDS011;34722;52.108;5.044;2023-05-07T10:01:25;12.25;;;11.05;;
48911;SDS011;34722;52.108;5.044;2023-05-07T10:03:52;14.77;;;11.45;;
48911;SDS011;34722;52.108;5.044;2023-05-07T10:06:19;11.85;;;10.48;;
48911;SDS011;34722;52.108;5.044;2023-05-07T10:08:45;10.82;;;9.82;;
48911;SDS011;34722;52.108;5.044;2023-05-07T10:11:11;11.23;;;9.95;;
48911;SDS011;34722;52.108;5.044;2023-05-07T10:13:37;12.45;;;10.75;;
48911;SDS011;34722;52.108;5.044;2023-05-07T10:16:06;14.10;;;11.15;;
48911;SDS011;34722;52.108;5.044;2023-05-07T10:18:32;13.75;;;12.35;;
48911;SDS011;34722;52.108;5.044;2023-05-07T10:21:02;12.77;;;11.68;;
48911;SDS011;34722;52.108;5.044;2023-05-07T10:23:34;13.05;;;10.75;;
48911;SDS011;34722;52.108;5.044;2023-05-07T10:26:02;11.50;;;9.90;;
48911;SDS011;34722;52.108;5.044;2023-05-07T10:28:30;11.25;;;8.75;;
48911;SDS011;34722;52.108;5.044;2023-05-07T10:31:03;9.50;;;8.43;;
48911;SDS011;34722;52.108;5.044;2023-05-07T10:33:40;10.55;;;8.15;;
48911;SDS011;34722;52.108;5.044;2023-05-07T10:36:09;12.73;;;10.10;;
48911;SDS011;34722;52.108;5.044;2023-05-07T10:38:34;12.63;;;10.05;;
48911;SDS011;34722;52.108;5.044;2023-05-07T10:41:00;9.15;;;8.27;;
48911;SDS011;34722;52.108;5.044;2023-05-07T10:43:37;10.35;;;8.23;;
48911;SDS011;34722;52.108;5.044;2023-05-07T10:46:13;9.40;;;8.48;;
48911;SDS011;34722;52.108;5.044;2023-05-07T10:51:33;10.85;;;9.52;;
48911;SDS011;34722;52.108;5.044;2023-05-07T10:54:33;11.90;;;8.50;;
48911;SDS011;34722;52.108;5.044;2023-05-07T10:56:52;9.75;;;7.43;;
48911;SDS011;34722;52.108;5.044;2023-05-07T11:01:52;9.23;;;7.20;;
48911;SDS011;34722;52.108;5.044;2023-05-07T11:04:27;7.10;;;6.40;;
48911;SDS011;34722;52.108;5.044;2023-05-07T11:07:56;8.20;;;6.65;;
48911;SDS011;34722;52.108;5.044;2023-05-07T11:10:22;8.60;;;6.43;;
48911;SDS011;34722;52.108;5.044;2023-05-07T11:12:51;6.95;;;6.25;;
48911;SDS011;34722;52.108;5.044;2023-05-07T11:15:37;6.85;;;5.93;;
48911;SDS011;34722;52.108;5.044;2023-05-07T11:18:04;6.80;;;5.68;;
48911;SDS011;34722;52.108;5.044;2023-05-07T11:26:13;8.88;;;6.93;;
48911;SDS011;34722;52.108;5.044;2023-05-07T11:28:41;11.30;;;6.45;;
48911;SDS011;34722;52.108;5.044;2023-05-07T11:31:08;7.47;;;5.22;;
48911;SDS011;34722;52.108;5.044;2023-05-07T11:33:34;6.90;;;5.00;;
48911;SDS011;34722;52.108;5.044;2023-05-07T11:36:02;7.25;;;5.65;;
48911;SDS011;34722;52.108;5.044;2023-05-07T11:38:29;9.52;;;6.65;;
48911;SDS011;34722;52.108;5.044;2023-05-07T11:41:01;7.70;;;6.03;;
48911;SDS011;34722;52.108;5.044;2023-05-07T11:43:29;7.05;;;5.43;;
48911;SDS011;34722;52.108;5.044;2023-05-07T11:45:58;9.25;;;5.60;;
48911;SDS011;34722;52.108;5.044;2023-05-07T11:48:36;6.22;;;5.60;;
48911;SDS011;34722;52.108;5.044;2023-05-07T11:51:18;8.13;;;5.28;;
48911;SDS011;34722;52.108;5.044;2023-05-07T11:56:11;5.70;;;5.00;;
48911;SDS011;34722;52.108;5.044;2023-05-07T11:58:39;6.82;;;6.28;;
48911;SDS011;34722;52.108;5.044;2023-05-07T12:03:40;7.63;;;6.20;;
48911;SDS011;34722;52.108;5.044;2023-05-07T12:06:10;13.55;;;6.57;;
48911;SDS011;34722;52.108;5.044;2023-05-07T12:08:38;7.85;;;5.40;;
48911;SDS011;34722;52.108;5.044;2023-05-07T12:11:06;7.10;;;5.07;;
48911;SDS011;34722;52.108;5.044;2023-05-07T12:13:34;7.28;;;4.93;;
48911;SDS011;34722;52.108;5.044;2023-05-07T12:16:00;5.95;;;4.53;;
48911;SDS011;34722;52.108;5.044;2023-05-07T12:18:28;7.95;;;4.93;;
48911;SDS011;34722;52.108;5.044;2023-05-07T12:20:54;6.55;;;4.85;;
48911;SDS011;34722;52.108;5.044;2023-05-07T12:23:20;7.22;;;5.40;;
48911;SDS011;34722;52.108;5.044;2023-05-07T12:25:46;7.25;;;5.22;;
48911;SDS011;34722;52.108;5.044;2023-05-07T12:28:13;7.05;;;5.15;;
48911;SDS011;34722;52.108;5.044;2023-05-07T12:30:40;6.57;;;5.55;;
48911;SDS011;34722;52.108;5.044;2023-05-07T12:33:08;7.18;;;3.90;;
48911;SDS011;34722;52.108;5.044;2023-05-07T12:35:41;9.13;;;6.55;;
48911;SDS011;34722;52.108;5.044;2023-05-07T12:38:07;9.63;;;6.68;;
48911;SDS011;34722;52.108;5.044;2023-05-07T12:40:38;8.13;;;7.00;;
48911;SDS011;34722;52.108;5.044;2023-05-07T12:43:05;11.45;;;7.60;;
48911;SDS011;34722;52.108;5.044;2023-05-07T12:48:15;10.52;;;9.15;;
48911;SDS011;34722;52.108;5.044;2023-05-07T12:50:41;13.07;;;9.23;;
48911;SDS011;34722;52.108;5.044;2023-05-07T12:53:08;9.57;;;8.15;;
48911;SDS011;34722;52.108;5.044;2023-05-07T12:56:09;9.13;;;6.72;;
48911;SDS011;34722;52.108;5.044;2023-05-07T12:58:31;9.18;;;7.95;;
48911;SDS011;34722;52.108;5.044;2023-05-07T13:01:00;9.93;;;8.30;;
48911;SDS011;34722;52.108;5.044;2023-05-07T13:03:29;8.07;;;7.15;;
48911;SDS011;34722;52.108;5.044;2023-05-07T13:05:59;11.25;;;8.43;;
48911;SDS011;34722;52.108;5.044;2023-05-07T13:08:31;10.98;;;9.57;;
48911;SDS011;34722;52.108;5.044;2023-05-07T13:10:58;12.30;;;11.07;;
48911;SDS011;34722;52.108;5.044;2023-05-07T13:13:41;11.60;;;9.82;;
48911;SDS011;34722;52.108;5.044;2023-05-07T13:16:13;14.43;;;11.48;;
48911;SDS011;34722;52.108;5.044;2023-05-07T13:18:39;13.80;;;9.88;;
48911;SDS011;34722;52.108;5.044;2023-05-07T13:21:05;10.48;;;9.57;;
48911;SDS011;34722;52.108;5.044;2023-05-07T13:23:31;14.35;;;10.98;;
48911;SDS011;34722;52.108;5.044;2023-05-07T13:25:57;12.88;;;9.15;;
48911;SDS011;34722;52.108;5.044;2023-05-07T13:28:23;14.18;;;12.77;;
48911;SDS011;34722;52.108;5.044;2023-05-07T13:30:49;14.38;;;12.95;;
48911;SDS011;34722;52.108;5.044;2023-05-07T13:33:16;16.63;;;14.25;;
48911;SDS011;34722;52.108;5.044;2023-05-07T13:35:42;12.20;;;10.10;;
48911;SDS011;34722;52.108;5.044;2023-05-07T13:38:08;11.10;;;9.98;;
48911;SDS011;34722;52.108;5.044;2023-05-07T13:40:33;10.63;;;9.52;;
48911;SDS011;34722;52.108;5.044;2023-05-07T13:43:02;11.90;;;8.00;;
48911;SDS011;34722;52.108;5.044;2023-05-07T13:45:28;10.02;;;8.27;;
48911;SDS011;34722;52.108;5.044;2023-05-07T13:47:57;11.50;;;7.30;;
48911;SDS011;34722;52.108;5.044;2023-05-07T13:50:23;7.65;;;5.75;;
48911;SDS011;34722;52.108;5.044;2023-05-07T13:52:52;10.65;;;6.25;;
48911;SDS011;34722;52.108;5.044;2023-05-07T13:55:18;8.15;;;5.25;;
48911;SDS011;34722;52.108;5.044;2023-05-07T13:57:58;4.22;;;3.80;;
48911;SDS011;34722;52.108;5.044;2023-05-07T14:00:25;5.55;;;4.15;;
48911;SDS011;34722;52.108;5.044;2023-05-07T14:02:52;5.43;;;4.50;;
48911;SDS011;34722;52.108;5.044;2023-05-07T14:05:18;7.28;;;4.40;;
48911;SDS011;34722;52.108;5.044;2023-05-07T14:07:43;9.70;;;4.50;;
48911;SDS011;34722;52.108;5.044;2023-05-07T14:10:09;7.13;;;5.25;;
48911;SDS011;34722;52.108;5.044;2023-05-07T14:12:36;9.18;;;5.18;;
48911;SDS011;34722;52.108;5.044;2023-05-07T14:15:02;6.93;;;5.03;;
48911;SDS011;34722;52.108;5.044;2023-05-07T14:17:28;9.32;;;4.95;;
48911;SDS011;34722;52.108;5.044;2023-05-07T14:19:54;6.68;;;5.13;;
48911;SDS011;34722;52.108;5.044;2023-05-07T14:22:49;9.32;;;5.35;;
48911;SDS011;34722;52.108;5.044;2023-05-07T14:25:15;11.98;;;10.43;;
48911;SDS011;34722;52.108;5.044;2023-05-07T14:30:59;14.43;;;12.63;;
48911;SDS011;34722;52.108;5.044;2023-05-07T15:52:57;16.10;;;13.43;;
48911;SDS011;34722;52.108;5.044;2023-05-07T15:55:25;14.07;;;9.77;;
48911;SDS011;34722;52.108;5.044;2023-05-07T15:57:54;11.77;;;9.15;;
48911;SDS011;34722;52.108;5.044;2023-05-07T16:00:21;12.57;;;8.63;;
48911;SDS011;34722;52.108;5.044;2023-05-07T16:03:00;8.60;;;7.70;;
48911;SDS011;34722;52.108;5.044;2023-05-07T16:05:28;7.55;;;6.85;;
48911;SDS011;34722;52.108;5.044;2023-05-07T16:07:55;7.20;;;6.50;;
48911;SDS011;34722;52.108;5.044;2023-05-07T16:10:22;7.07;;;5.93;;
48911;SDS011;34722;52.108;5.044;2023-05-07T16:12:48;7.95;;;5.30;;
48911;SDS011;34722;52.108;5.044;2023-05-07T16:15:13;6.93;;;5.82;;
48911;SDS011;34722;52.108;5.044;2023-05-07T16:17:56;4.97;;;4.20;;
48911;SDS011;34722;52.108;5.044;2023-05-07T16:20:33;6.05;;;5.30;;
48911;SDS011;34722;52.108;5.044;2023-05-07T16:24:11;6.30;;;4.20;;
48911;SDS011;34722;52.108;5.044;2023-05-07T16:30:09;4.00;;;3.65;;
48911;SDS011;34722;52.108;5.044;2023-05-07T16:32:38;6.68;;;4.10;;